Weather at N-306 Heliport

Public forecast

Using degrees Celsius for public forecast. Weather courtesy of forecast.io.

Closest aviation weather report (METAR) to N-306 Heliport

Closest report is Muan International Airport, 27.3 nm (50.6 km) SE. Retrieved 2021/10/23 02:00 UTC (11 minutes ago):

RKJB 230200Z 35002KT CAVOK 17/02 Q1029 NOSIG

Closest aviation forecast (TAF) to N-306 Heliport

Closest forecast is Muan International Airport, 27.3 nm (50.6 km) SE. Retrieved 2021-10-23 00:00 UTC (2 hours ago):

TAF RKJB 222300Z 2300/2406 11005KT CAVOK TX19/2305Z TN07/2321Z TX19/2405Z BECMG 2302/2303 35006KT BECMG 2312/2313 11005KT BECMG 2403/2404 35006KT